createdAt,value
2018-06-17T00:01:31.607Z,19.80
2018-06-17T00:04:00.836Z,19.90
2018-06-17T00:06:29.429Z,19.80
2018-06-17T00:08:58.568Z,19.80
2018-06-17T00:11:27.138Z,19.70
2018-06-17T00:13:56.360Z,19.70
2018-06-17T00:16:24.816Z,19.70
2018-06-17T00:18:53.802Z,19.70
2018-06-17T00:21:22.485Z,19.60
2018-06-17T00:23:52.202Z,19.40
2018-06-17T00:26:20.648Z,19.30
2018-06-17T00:28:49.183Z,19.30
2018-06-17T00:31:17.742Z,19.30
2018-06-17T00:33:46.295Z,19.30
2018-06-17T00:36:15.549Z,19.10
2018-06-17T00:38:44.099Z,19.00
2018-06-17T00:41:12.753Z,19.00
2018-06-17T00:43:41.253Z,19.00
2018-06-17T00:46:10.279Z,19.10
2018-06-17T00:48:38.769Z,19.20
2018-06-17T00:51:07.281Z,19.20
2018-06-17T00:53:35.781Z,19.30
2018-06-17T00:56:04.867Z,19.40
2018-06-17T00:58:33.343Z,19.40
2018-06-17T01:01:01.805Z,19.50
2018-06-17T01:03:31.006Z,19.50
2018-06-17T01:05:59.573Z,19.60
2018-06-17T01:08:28.073Z,19.60
2018-06-17T01:10:56.599Z,19.50
2018-06-17T01:13:25.068Z,19.50
2018-06-17T01:15:53.545Z,19.50
2018-06-17T01:18:22.185Z,19.40
2018-06-17T01:20:50.806Z,19.40
2018-06-17T01:23:19.950Z,19.30
2018-06-17T01:25:48.390Z,19.30
2018-06-17T01:28:17.526Z,19.40
2018-06-17T01:30:46.067Z,19.40
2018-06-17T01:33:15.686Z,19.40
2018-06-17T01:35:44.226Z,19.40
2018-06-17T01:38:12.748Z,19.40
2018-06-17T01:40:41.186Z,19.30
2018-06-17T01:43:09.651Z,19.30
2018-06-17T01:45:38.154Z,19.20
2018-06-17T01:48:06.689Z,19.10
2018-06-17T01:50:36.344Z,19.20
2018-06-17T01:53:04.792Z,19.20
2018-06-17T01:55:33.290Z,19.20
2018-06-17T01:58:01.873Z,19.00
2018-06-17T02:00:30.318Z,18.90
2018-06-17T02:03:03.377Z,19.00
2018-06-17T02:05:37.154Z,18.90
2018-06-17T02:08:10.943Z,18.90
2018-06-17T02:11:48.791Z,19.00
2018-06-17T02:14:22.527Z,19.00
2018-06-17T02:16:51.526Z,19.10
2018-06-17T02:19:19.939Z,19.00
2018-06-17T02:21:49.187Z,18.90
2018-06-17T02:24:17.641Z,18.90
2018-06-17T02:26:46.101Z,18.90
2018-06-17T02:29:14.553Z,18.90
2018-06-17T02:31:43.105Z,18.90
2018-06-17T02:34:11.634Z,18.90
2018-06-17T02:36:40.147Z,18.90
2018-06-17T02:39:09.599Z,18.90
2018-06-17T02:41:38.387Z,19.00
2018-06-17T02:44:07.035Z,19.00
2018-06-17T02:46:40.814Z,19.00
2018-06-17T02:49:44.309Z,19.00
2018-06-17T02:52:18.088Z,19.10
2018-06-17T02:54:47.369Z,19.00
2018-06-17T02:57:17.993Z,19.00
2018-06-17T02:59:47.233Z,18.90
2018-06-17T03:02:15.884Z,19.00
2018-06-17T03:04:44.573Z,18.90
2018-06-17T03:07:13.169Z,18.80
2018-06-17T03:09:42.303Z,18.80
2018-06-17T03:12:10.750Z,18.80
2018-06-17T03:14:39.293Z,18.80
2018-06-17T03:17:07.796Z,18.80
2018-06-17T03:19:36.934Z,18.90
2018-06-17T03:22:05.504Z,18.90
2018-06-17T03:24:39.438Z,18.90
2018-06-17T03:27:13.861Z,19.00
2018-06-17T03:29:47.662Z,19.00
2018-06-17T03:32:21.331Z,19.00
2018-06-17T03:36:56.211Z,19.10
2018-06-17T03:39:24.628Z,19.10
2018-06-17T03:41:53.828Z,19.10
2018-06-17T03:44:22.307Z,19.10
2018-06-17T03:46:50.750Z,19.10
2018-06-17T03:49:19.282Z,19.20
2018-06-17T03:51:47.765Z,19.10
2018-06-17T03:54:16.328Z,19.20
2018-06-17T03:56:44.758Z,19.20
2018-06-17T03:59:13.239Z,19.20
2018-06-17T04:01:41.717Z,19.20
2018-06-17T04:04:10.292Z,19.10
2018-06-17T04:06:39.445Z,19.10
2018-06-17T04:09:08.553Z,19.00
2018-06-17T04:11:37.318Z,19.00
2018-06-17T04:14:05.778Z,19.00
2018-06-17T04:16:34.381Z,19.00
2018-06-17T04:19:02.834Z,19.00
2018-06-17T04:21:31.318Z,19.10
2018-06-17T04:23:59.750Z,19.20
2018-06-17T04:26:28.322Z,19.30
2018-06-17T04:28:56.753Z,19.30
2018-06-17T04:31:25.309Z,19.30
2018-06-17T04:33:53.782Z,19.30
2018-06-17T04:36:22.399Z,19.30
2018-06-17T04:38:51.668Z,19.40
2018-06-17T04:41:20.661Z,19.40
2018-06-17T04:43:49.147Z,19.40
2018-06-17T04:46:17.642Z,19.40
2018-06-17T04:48:46.732Z,19.40
2018-06-17T04:51:15.262Z,19.40
2018-06-17T04:53:43.710Z,19.30
2018-06-17T04:56:12.272Z,19.30
2018-06-17T04:58:41.547Z,19.30
2018-06-17T05:01:10.023Z,19.30
2018-06-17T05:03:38.578Z,19.30
2018-06-17T05:06:08.245Z,19.30
2018-06-17T05:08:37.311Z,19.30
2018-06-17T05:11:05.832Z,19.30
2018-06-17T05:13:34.214Z,19.20
2018-06-17T05:16:02.756Z,19.20
2018-06-17T05:18:31.413Z,19.20
2018-06-17T05:20:59.970Z,19.20
2018-06-17T05:23:28.913Z,19.20
2018-06-17T05:25:57.377Z,19.20
2018-06-17T05:28:25.854Z,19.20
2018-06-17T05:30:54.428Z,19.20
2018-06-17T05:33:22.872Z,19.10
2018-06-17T05:35:51.442Z,19.10
2018-06-17T05:38:19.918Z,19.10
2018-06-17T05:40:48.554Z,19.10
2018-06-17T05:43:17.150Z,19.10
2018-06-17T05:45:45.633Z,19.00
2018-06-17T05:48:14.218Z,19.00
2018-06-17T05:50:42.659Z,19.00
2018-06-17T05:53:11.793Z,19.10
2018-06-17T05:55:40.292Z,18.90
2018-06-17T05:58:08.702Z,19.00
2018-06-17T06:00:37.224Z,19.00
2018-06-17T06:03:05.756Z,19.00
2018-06-17T06:05:34.247Z,19.00
2018-06-17T06:08:03.340Z,19.00
2018-06-17T06:10:31.754Z,19.00
2018-06-17T06:13:00.674Z,18.90
2018-06-17T06:15:29.190Z,18.90
2018-06-17T06:17:57.676Z,18.90
2018-06-17T06:20:26.298Z,18.90
2018-06-17T06:22:55.578Z,18.90
2018-06-17T06:25:24.217Z,18.90
2018-06-17T06:27:52.667Z,18.90
2018-06-17T06:30:21.305Z,18.90
2018-06-17T06:32:49.827Z,18.90
2018-06-17T06:35:18.311Z,19.00
2018-06-17T06:37:46.895Z,19.10
2018-06-17T06:40:15.409Z,19.20
2018-06-17T06:42:43.833Z,19.20
2018-06-17T06:45:12.315Z,19.30
2018-06-17T06:47:40.948Z,19.30
2018-06-17T06:50:09.563Z,19.30
2018-06-17T06:52:38.018Z,19.50
2018-06-17T06:55:06.586Z,19.60
2018-06-17T06:57:36.479Z,19.50
2018-06-17T07:00:05.301Z,19.60
2018-06-17T07:02:45.217Z,19.60
2018-06-17T07:05:24.970Z,19.60
2018-06-17T07:08:04.571Z,19.50
2018-06-17T07:10:33.100Z,19.60
2018-06-17T07:13:02.536Z,19.70
2018-06-17T07:15:41.994Z,19.70
2018-06-17T07:18:37.843Z,19.80
2018-06-17T07:21:06.602Z,19.90
2018-06-17T07:23:35.800Z,20.10
2018-06-17T07:26:46.075Z,20.10
2018-06-17T07:29:30.098Z,20.20
2018-06-17T07:31:58.621Z,20.30
2018-06-17T07:34:27.895Z,20.30
2018-06-17T07:36:56.400Z,20.30
2018-06-17T07:41:33.292Z,20.50
2018-06-17T07:44:02.450Z,20.60
2018-06-17T07:46:30.937Z,20.60
2018-06-17T07:49:40.570Z,20.70
2018-06-17T07:52:20.590Z,21.10
2018-06-17T07:54:50.092Z,21.60
2018-06-17T07:57:19.815Z,21.60
2018-06-17T07:59:48.318Z,21.30
2018-06-17T08:02:17.022Z,21.60
2018-06-17T08:04:45.537Z,21.80
2018-06-17T08:07:14.530Z,22.10
2018-06-17T08:09:43.032Z,22.30
2018-06-17T08:12:12.807Z,22.20
2018-06-17T08:14:41.954Z,22.20
2018-06-17T08:17:11.092Z,22.40
2018-06-17T08:19:40.117Z,22.40
2018-06-17T08:22:08.589Z,22.90
2018-06-17T08:24:37.660Z,22.70
2018-06-17T08:27:06.235Z,22.40
2018-06-17T08:29:34.858Z,23.10
2018-06-17T08:32:03.932Z,23.60
2018-06-17T08:34:32.641Z,23.70
2018-06-17T08:37:01.156Z,23.80
2018-06-17T08:39:29.704Z,23.80
2018-06-17T08:41:58.290Z,24.10
2018-06-17T08:44:26.719Z,24.20
2018-06-17T08:46:55.272Z,23.90
2018-06-17T08:49:23.684Z,23.30
2018-06-17T08:51:52.225Z,23.20
2018-06-17T08:54:20.680Z,23.50
2018-06-17T08:56:49.136Z,23.80
2018-06-17T08:59:17.657Z,23.90
2018-06-17T09:01:46.305Z,23.80
2018-06-17T09:04:14.825Z,24.00
2018-06-17T09:06:43.361Z,23.50
2018-06-17T09:09:12.684Z,23.50
2018-06-17T09:11:41.198Z,23.90
2018-06-17T09:14:09.810Z,24.60
2018-06-17T09:16:38.252Z,24.50
2018-06-17T09:19:06.879Z,24.10
2018-06-17T09:21:35.403Z,24.30
2018-06-17T09:24:03.969Z,24.10
2018-06-17T09:26:32.638Z,23.80
2018-06-17T09:29:01.266Z,23.60
2018-06-17T09:31:29.859Z,23.80
2018-06-17T09:33:59.325Z,24.70
2018-06-17T09:36:28.629Z,25.10
2018-06-17T09:38:57.160Z,24.70
2018-06-17T09:41:25.746Z,24.60
2018-06-17T09:43:54.344Z,24.60
2018-06-17T09:46:22.850Z,24.60
2018-06-17T09:48:51.360Z,25.20
2018-06-17T09:51:20.071Z,26.10
2018-06-17T09:53:48.595Z,26.40
2018-06-17T09:56:17.048Z,26.80
2018-06-17T09:58:45.504Z,26.00
2018-06-17T10:01:14.125Z,25.50
2018-06-17T10:03:43.271Z,24.70
2018-06-17T10:06:11.796Z,24.30
2018-06-17T10:08:40.279Z,24.90
2018-06-17T10:11:09.012Z,25.70
2018-06-17T10:13:44.785Z,26.30
2018-06-17T10:16:13.876Z,26.50
2018-06-17T10:18:42.518Z,27.00
2018-06-17T10:21:11.056Z,26.40
2018-06-17T10:23:39.568Z,25.70
2018-06-17T10:26:08.085Z,25.40
2018-06-17T10:28:36.742Z,25.80
2018-06-17T10:31:06.274Z,25.60
2018-06-17T10:33:35.599Z,25.00
2018-06-17T10:36:04.128Z,26.00
2018-06-17T10:38:32.827Z,26.50
2018-06-17T10:41:01.487Z,26.20
2018-06-17T10:43:31.303Z,26.50
2018-06-17T10:46:00.399Z,26.80
2018-06-17T10:48:29.086Z,26.20
2018-06-17T10:50:57.592Z,25.50
2018-06-17T10:53:26.149Z,25.70
2018-06-17T10:55:54.862Z,25.50
2018-06-17T10:58:23.921Z,25.80
2018-06-17T11:00:52.415Z,25.60
2018-06-17T11:03:20.911Z,26.00
2018-06-17T11:05:49.364Z,26.70
2018-06-17T11:08:18.453Z,26.50
2018-06-17T11:10:46.928Z,26.10
2018-06-17T11:13:15.563Z,26.00
2018-06-17T11:15:44.075Z,25.50
2018-06-17T11:18:12.593Z,25.70
2018-06-17T11:20:41.197Z,26.10
2018-06-17T11:23:10.472Z,25.30
2018-06-17T11:25:39.058Z,24.80
2018-06-17T11:28:08.129Z,24.80
2018-06-17T11:30:37.383Z,25.20
2018-06-17T11:33:06.666Z,25.30
2018-06-17T11:35:35.209Z,25.20
2018-06-17T11:38:03.726Z,25.10
2018-06-17T11:40:32.475Z,25.40
2018-06-17T11:43:00.914Z,25.40
2018-06-17T11:45:29.456Z,25.10
2018-06-17T11:47:57.934Z,24.70
2018-06-17T11:50:27.175Z,24.60
2018-06-17T11:52:55.664Z,24.70
2018-06-17T11:57:52.572Z,25.00
2018-06-17T12:00:22.039Z,25.20
2018-06-17T12:02:50.519Z,25.40
2018-06-17T12:05:18.966Z,25.60
2018-06-17T12:07:47.570Z,25.80
2018-06-17T12:10:16.069Z,25.90
2018-06-17T12:12:44.553Z,25.50
2018-06-17T12:15:12.978Z,25.50
2018-06-17T12:17:41.701Z,25.80
2018-06-17T12:20:11.068Z,26.00
2018-06-17T12:22:39.671Z,25.90
2018-06-17T12:25:08.264Z,25.80
2018-06-17T12:27:36.847Z,25.70
2018-06-17T12:30:05.483Z,25.40
2018-06-17T12:32:33.939Z,25.60
2018-06-17T12:35:02.422Z,25.50
2018-06-17T12:37:30.870Z,25.20
2018-06-17T12:39:59.366Z,25.30
2018-06-17T12:42:27.862Z,25.20
2018-06-17T12:44:56.482Z,25.20
2018-06-17T12:47:24.931Z,25.30
2018-06-17T12:49:53.661Z,25.30
2018-06-17T12:52:22.220Z,25.10
2018-06-17T12:54:51.297Z,25.20
2018-06-17T12:57:19.756Z,25.40
2018-06-17T12:59:48.381Z,25.40
2018-06-17T13:02:16.916Z,25.30
2018-06-17T13:04:45.451Z,24.80
2018-06-17T13:07:14.055Z,24.70
2018-06-17T13:09:43.129Z,25.20
2018-06-17T13:12:11.774Z,25.80
2018-06-17T13:14:40.312Z,26.30
2018-06-17T13:17:09.372Z,25.80
2018-06-17T13:19:37.939Z,25.30
2018-06-17T13:22:06.834Z,25.70
2018-06-17T13:24:35.331Z,26.10
2018-06-17T13:27:03.874Z,26.20
2018-06-17T13:29:32.428Z,26.60
2018-06-17T13:32:00.995Z,26.60
2018-06-17T13:34:29.658Z,26.20
2018-06-17T13:36:58.188Z,26.00
2018-06-17T13:39:27.470Z,26.00
2018-06-17T13:41:55.959Z,26.00
2018-06-17T13:44:24.619Z,26.10
2018-06-17T13:46:53.181Z,26.00
2018-06-17T13:49:21.666Z,25.50
2018-06-17T13:51:52.982Z,25.40
2018-06-17T13:54:21.458Z,25.30
2018-06-17T13:56:49.987Z,25.20
2018-06-17T13:59:18.473Z,25.60
2018-06-17T14:01:47.072Z,25.70
2018-06-17T14:04:15.611Z,25.70
2018-06-17T14:06:44.096Z,25.80
2018-06-17T14:09:12.526Z,26.10
2018-06-17T14:11:41.570Z,26.30
2018-06-17T14:14:10.090Z,26.20
2018-06-17T14:16:38.851Z,25.70
2018-06-17T14:21:35.449Z,25.10
2018-06-17T14:24:03.999Z,24.80
2018-06-17T14:26:32.536Z,24.70
2018-06-17T14:29:01.050Z,24.60
2018-06-17T14:31:30.305Z,24.70
2018-06-17T14:33:58.773Z,24.50
2018-06-17T14:36:27.834Z,24.50
2018-06-17T14:38:56.363Z,24.60
2018-06-17T14:41:24.793Z,24.80
2018-06-17T14:43:58.961Z,25.40
2018-06-17T14:46:32.781Z,25.30
2018-06-17T14:49:06.375Z,24.90
2018-06-17T14:51:40.727Z,24.80
2018-06-17T14:54:09.283Z,24.80
2018-06-17T14:56:37.802Z,24.90
2018-06-17T14:59:06.338Z,24.60
2018-06-17T15:01:34.873Z,24.40
2018-06-17T15:04:04.032Z,24.30
2018-06-17T15:06:32.537Z,24.00
2018-06-17T15:09:01.049Z,23.60
2018-06-17T15:11:29.648Z,23.60
2018-06-17T15:13:58.045Z,23.40
2018-06-17T15:16:26.509Z,23.10
2018-06-17T15:18:54.952Z,23.30
2018-06-17T15:21:23.404Z,23.40
2018-06-17T15:23:52.771Z,23.70
2018-06-17T15:26:21.300Z,23.90
2018-06-17T15:28:49.862Z,23.80
2018-06-17T15:31:24.243Z,23.80
2018-06-17T15:33:58.080Z,24.10
2018-06-17T15:36:31.783Z,24.20
2018-06-17T15:39:04.431Z,23.70
2018-06-17T15:41:32.942Z,23.70
2018-06-17T15:44:01.397Z,23.60
2018-06-17T15:46:29.846Z,23.30
2018-06-17T15:48:58.321Z,23.20
2018-06-17T15:51:27.073Z,23.30
2018-06-17T15:53:56.187Z,23.40
2018-06-17T15:56:24.769Z,23.50
2018-06-17T15:58:53.248Z,23.60
2018-06-17T16:01:21.730Z,23.70
2018-06-17T16:03:50.262Z,23.60
2018-06-17T16:06:19.058Z,23.40
2018-06-17T16:08:47.484Z,23.10
2018-06-17T16:11:16.023Z,23.00
2018-06-17T16:13:49.993Z,23.20
2018-06-17T16:16:23.685Z,23.30
2018-06-17T16:18:57.362Z,23.30
2018-06-17T16:21:25.907Z,23.30
2018-06-17T16:23:54.866Z,23.30
2018-06-17T16:26:23.312Z,23.30
2018-06-17T16:28:51.805Z,23.20
2018-06-17T16:31:20.301Z,23.20
2018-06-17T16:33:48.788Z,23.30
2018-06-17T16:36:17.272Z,23.50
2018-06-17T16:38:45.900Z,23.60
2018-06-17T16:41:14.368Z,23.30
2018-06-17T16:43:42.850Z,23.30
2018-06-17T16:46:11.354Z,23.20
2018-06-17T16:48:39.930Z,23.00
2018-06-17T16:53:19.074Z,22.70
2018-06-17T16:55:52.865Z,22.70
2018-06-17T16:58:26.752Z,22.80
2018-06-17T17:00:55.392Z,22.90
2018-06-17T17:03:23.970Z,22.80
2018-06-17T17:05:52.587Z,22.90
2018-06-17T17:08:21.122Z,23.00
2018-06-17T17:10:49.686Z,23.10
2018-06-17T17:13:18.441Z,23.20
2018-06-17T17:15:47.179Z,23.30
2018-06-17T17:18:15.661Z,23.30
2018-06-17T17:20:44.246Z,23.20
2018-06-17T17:23:12.822Z,23.20
2018-06-17T17:25:41.268Z,23.10
2018-06-17T17:28:09.842Z,23.10
2018-06-17T17:30:39.233Z,22.90
2018-06-17T17:33:13.147Z,22.80
2018-06-17T17:35:47.393Z,22.80
2018-06-17T17:38:21.151Z,22.90
2018-06-17T17:40:52.830Z,22.80
2018-06-17T17:43:21.372Z,22.80
2018-06-17T17:45:55.038Z,22.80
2018-06-17T17:48:23.513Z,22.80
2018-06-17T17:50:52.011Z,22.80
2018-06-17T17:53:20.538Z,22.80
2018-06-17T17:55:48.978Z,22.70
2018-06-17T17:58:17.463Z,22.60
2018-06-17T18:00:45.956Z,22.60
2018-06-17T18:03:14.602Z,22.60
2018-06-17T18:05:43.220Z,22.50
2018-06-17T18:08:11.935Z,22.60
2018-06-17T18:10:40.439Z,22.50
2018-06-17T18:13:09.736Z,22.50
2018-06-17T18:15:38.229Z,22.50
2018-06-17T18:18:06.682Z,22.50
2018-06-17T18:20:35.362Z,22.50
2018-06-17T18:23:03.888Z,22.40
2018-06-17T18:25:37.657Z,22.40
2018-06-17T18:28:11.791Z,22.30
2018-06-17T18:30:45.492Z,22.30
2018-06-17T18:33:19.174Z,22.20
2018-06-17T18:35:53.077Z,22.20
2018-06-17T18:38:21.608Z,22.20
2018-06-17T18:40:50.565Z,22.30
2018-06-17T18:43:19.010Z,22.30
2018-06-17T18:45:48.416Z,22.10
2018-06-17T18:48:16.901Z,22.10
2018-06-17T18:50:45.661Z,21.90
2018-06-17T18:53:19.370Z,21.90
2018-06-17T18:55:47.875Z,21.80
2018-06-17T18:58:16.591Z,21.80
2018-06-17T19:00:46.040Z,21.70
2018-06-17T19:03:14.489Z,21.80
2018-06-17T19:05:43.180Z,21.70
2018-06-17T19:08:16.997Z,21.70
2018-06-17T19:10:50.948Z,21.70
2018-06-17T19:13:25.480Z,21.70
2018-06-17T19:15:59.384Z,21.70
2018-06-17T19:18:28.412Z,21.60
2018-06-17T19:20:57.619Z,21.60
2018-06-17T19:23:26.046Z,21.60
2018-06-17T19:25:54.870Z,21.60
2018-06-17T19:28:23.340Z,21.50
2018-06-17T19:30:51.886Z,21.40
2018-06-17T19:33:20.386Z,21.40
2018-06-17T19:35:49.048Z,21.40
2018-06-17T19:38:17.575Z,21.40
2018-06-17T19:40:46.156Z,21.30
2018-06-17T19:43:14.755Z,21.30
2018-06-17T19:45:43.239Z,21.30
2018-06-17T19:48:12.427Z,21.30
2018-06-17T19:50:46.212Z,21.30
2018-06-17T19:53:20.075Z,21.20
2018-06-17T19:55:53.847Z,21.20
2018-06-17T19:58:27.721Z,21.10
2018-06-17T20:00:58.572Z,20.90
2018-06-17T20:03:27.079Z,21.00
2018-06-17T20:05:55.587Z,20.90
2018-06-17T20:08:24.100Z,20.80
2018-06-17T20:10:52.737Z,20.80
2018-06-17T20:13:21.314Z,20.80
2018-06-17T20:15:49.993Z,20.80
2018-06-17T20:18:18.527Z,20.80
2018-06-17T20:20:47.029Z,20.70
2018-06-17T20:23:15.661Z,20.80
2018-06-17T20:25:44.166Z,20.70
2018-06-17T20:28:12.666Z,20.70
2018-06-17T20:30:41.198Z,20.60
2018-06-17T20:33:14.949Z,20.60
2018-06-17T20:35:48.695Z,20.70
2018-06-17T20:38:22.308Z,20.60
2018-06-17T20:40:56.041Z,20.60
2018-06-17T20:43:30.528Z,20.60
2018-06-17T20:45:59.466Z,20.60
2018-06-17T20:48:27.953Z,20.50
2018-06-17T20:50:56.441Z,20.40
2018-06-17T20:53:24.998Z,20.40
2018-06-17T20:55:53.618Z,20.40
2018-06-17T20:58:22.048Z,20.40
2018-06-17T21:00:50.536Z,20.30
2018-06-17T21:03:19.191Z,20.30
2018-06-17T21:05:48.297Z,20.20
2018-06-17T21:08:16.901Z,20.10
2018-06-17T21:10:45.450Z,20.00
2018-06-17T21:13:14.102Z,20.10
2018-06-17T21:15:42.749Z,20.00
2018-06-17T21:18:11.202Z,19.90
2018-06-17T21:20:44.949Z,19.80
2018-06-17T21:23:18.855Z,19.70
2018-06-17T21:25:52.757Z,19.70
2018-06-17T21:28:22.073Z,19.50
2018-06-17T21:30:50.582Z,19.40
2018-06-17T21:33:19.173Z,19.30
2018-06-17T21:35:47.677Z,19.30
2018-06-17T21:38:16.209Z,19.20
2018-06-17T21:40:45.450Z,19.20
2018-06-17T21:43:14.498Z,19.10
2018-06-17T21:45:43.039Z,19.00
2018-06-17T21:48:12.341Z,19.00
2018-06-17T21:50:41.030Z,19.10
2018-06-17T21:53:09.587Z,19.10
2018-06-17T21:55:38.625Z,19.10
2018-06-17T21:58:07.184Z,19.10
2018-06-17T22:00:35.763Z,19.10
2018-06-17T22:03:04.305Z,19.10
2018-06-17T22:05:32.822Z,19.10
2018-06-17T22:08:06.554Z,19.10
2018-06-17T22:10:40.937Z,19.20
2018-06-17T22:13:09.561Z,19.10
2018-06-17T22:15:44.898Z,19.00
2018-06-17T22:18:14.555Z,19.00
2018-06-17T22:20:43.161Z,19.00
2018-06-17T22:23:11.833Z,18.90
2018-06-17T22:25:40.531Z,18.90
2018-06-17T22:28:09.135Z,18.80
2018-06-17T22:30:37.767Z,18.80
2018-06-17T22:33:06.338Z,18.70
2018-06-17T22:35:34.907Z,18.60
2018-06-17T22:38:04.442Z,18.50
2018-06-17T22:40:32.934Z,18.20
2018-06-17T22:43:02.214Z,18.10
2018-06-17T22:45:30.711Z,18.00
2018-06-17T22:48:00.368Z,18.00
2018-06-17T22:50:28.858Z,18.10
2018-06-17T22:53:08.481Z,18.20
2018-06-17T22:55:37.038Z,18.20
2018-06-17T22:58:10.710Z,18.10
2018-06-17T23:00:44.728Z,18.10
2018-06-17T23:03:18.944Z,18.00
2018-06-17T23:05:52.834Z,18.10
2018-06-17T23:08:27.313Z,18.20
2018-06-17T23:10:56.290Z,18.20
2018-06-17T23:13:25.538Z,18.20
2018-06-17T23:15:54.964Z,18.30
2018-06-17T23:18:23.924Z,18.30
2018-06-17T23:20:52.543Z,18.30
2018-06-17T23:23:21.097Z,18.30
2018-06-17T23:25:49.666Z,18.30
2018-06-17T23:28:18.191Z,18.40
2018-06-17T23:30:46.898Z,18.30
2018-06-17T23:33:15.341Z,18.30
2018-06-17T23:35:44.090Z,18.40
2018-06-17T23:38:12.817Z,18.40
2018-06-17T23:40:41.414Z,18.30
2018-06-17T23:43:09.948Z,18.30
2018-06-17T23:45:43.599Z,18.30
2018-06-17T23:48:17.296Z,18.30
2018-06-17T23:52:52.249Z,18.30
2018-06-17T23:55:26.101Z,18.30
2018-06-17T23:57:54.613Z,18.30
